sensor_id;sensor_type;location;lat;lon;timestamp;pressure;altitude;pressure_sealevel;temperature;humidity
59409;BME280;45213;32.654;-115.458;2023-02-03T00:01:42;102594.16;;;22.78;19.15
59409;BME280;45213;32.654;-115.458;2023-02-03T00:04:08;102596.63;;;22.94;17.68
59409;BME280;45213;32.654;-115.458;2023-02-03T00:06:35;102594.16;;;22.78;18.51
59409;BME280;45213;32.654;-115.458;2023-02-03T00:09:02;102587.13;;;22.77;18.21
59409;BME280;45213;32.654;-115.458;2023-02-03T00:11:29;102593.41;;;22.68;18.16
59409;BME280;45213;32.654;-115.458;2023-02-03T00:13:56;102588.03;;;22.76;18.34
59409;BME280;45213;32.654;-115.458;2023-02-03T00:16:23;102581.00;;;22.71;18.48
59409;BME280;45213;32.654;-115.458;2023-02-03T00:18:50;102581.25;;;22.51;19.47
59409;BME280;45213;32.654;-115.458;2023-02-03T00:21:17;102580.69;;;22.93;19.10
59409;BME280;45213;32.654;-115.458;2023-02-03T00:23:44;102569.00;;;23.08;18.67
59409;BME280;45213;32.654;-115.458;2023-02-03T00:26:13;102576.84;;;22.49;19.06
59409;BME280;45213;32.654;-115.458;2023-02-03T00:28:41;102570.75;;;22.41;19.26
59409;BME280;45213;32.654;-115.458;2023-02-03T00:31:24;102562.88;;;24.08;18.37
59409;BME280;45213;32.654;-115.458;2023-02-03T00:33:55;102573.50;;;24.95;17.48
59409;BME280;45213;32.654;-115.458;2023-02-03T00:36:22;102572.91;;;24.83;16.84
59409;BME280;45213;32.654;-115.458;2023-02-03T00:38:49;102569.09;;;25.68;17.29
59409;BME280;45213;32.654;-115.458;2023-02-03T00:41:16;102567.25;;;25.70;16.27
59409;BME280;45213;32.654;-115.458;2023-02-03T00:43:43;102567.16;;;25.38;15.91
59409;BME280;45213;32.654;-115.458;2023-02-03T00:46:10;102567.28;;;23.60;18.65
59409;BME280;45213;32.654;-115.458;2023-02-03T00:48:37;102573.03;;;21.93;20.09
59409;BME280;45213;32.654;-115.458;2023-02-03T00:51:04;102581.56;;;21.19;20.71
59409;BME280;45213;32.654;-115.458;2023-02-03T00:53:32;102581.78;;;20.79;21.22
59409;BME280;45213;32.654;-115.458;2023-02-03T00:55:58;102580.13;;;20.52;21.54
59409;BME280;45213;32.654;-115.458;2023-02-03T00:58:25;102574.03;;;20.20;22.20
59409;BME280;45213;32.654;-115.458;2023-02-03T01:00:54;102578.50;;;19.95;23.03
59409;BME280;45213;32.654;-115.458;2023-02-03T01:03:21;102577.66;;;19.76;24.11
59409;BME280;45213;32.654;-115.458;2023-02-03T01:05:48;102580.28;;;19.58;24.28
59409;BME280;45213;32.654;-115.458;2023-02-03T01:08:15;102582.88;;;19.46;24.26
59409;BME280;45213;32.654;-115.458;2023-02-03T01:10:42;102587.25;;;19.25;24.16
59409;BME280;45213;32.654;-115.458;2023-02-03T01:13:08;102589.91;;;19.16;25.24
59409;BME280;45213;32.654;-115.458;2023-02-03T01:15:35;102588.97;;;19.00;25.99
59409;BME280;45213;32.654;-115.458;2023-02-03T01:18:01;102588.03;;;18.84;25.03
59409;BME280;45213;32.654;-115.458;2023-02-03T01:20:28;102601.16;;;18.69;26.00
59409;BME280;45213;32.654;-115.458;2023-02-03T01:22:56;102608.16;;;18.56;26.89
59409;BME280;45213;32.654;-115.458;2023-02-03T01:25:23;102616.00;;;18.48;26.55
59409;BME280;45213;32.654;-115.458;2023-02-03T01:27:50;102613.34;;;18.45;27.28
59409;BME280;45213;32.654;-115.458;2023-02-03T01:30:16;102615.94;;;18.33;28.61
59409;BME280;45213;32.654;-115.458;2023-02-03T01:32:43;102615.88;;;18.22;29.45
59409;BME280;45213;32.654;-115.458;2023-02-03T01:35:09;102621.94;;;18.12;28.68
59409;BME280;45213;32.654;-115.458;2023-02-03T01:37:36;102621.88;;;18.03;29.23
59409;BME280;45213;32.654;-115.458;2023-02-03T01:40:03;102622.66;;;17.91;28.96
59409;BME280;45213;32.654;-115.458;2023-02-03T01:42:39;102620.75;;;17.78;29.93
59409;BME280;45213;32.654;-115.458;2023-02-03T01:45:06;102616.34;;;17.73;29.92
59409;BME280;45213;32.654;-115.458;2023-02-03T01:47:47;102602.13;;;17.54;29.88
59409;BME280;45213;32.654;-115.458;2023-02-03T01:50:24;102619.75;;;17.60;31.98
59409;BME280;45213;32.654;-115.458;2023-02-03T01:52:56;102632.69;;;17.37;31.76
59409;BME280;45213;32.654;-115.458;2023-02-03T01:55:27;102634.28;;;17.23;31.48
59409;BME280;45213;32.654;-115.458;2023-02-03T01:58:28;102624.53;;;17.14;32.17
59409;BME280;45213;32.654;-115.458;2023-02-03T02:00:57;102623.63;;;17.12;32.27
59409;BME280;45213;32.654;-115.458;2023-02-03T02:03:31;102615.63;;;17.00;32.64
59409;BME280;45213;32.654;-115.458;2023-02-03T02:06:04;102616.50;;;17.00;32.24
59409;BME280;45213;32.654;-115.458;2023-02-03T02:08:31;102615.59;;;16.97;32.04
59409;BME280;45213;32.654;-115.458;2023-02-03T02:10:59;102615.41;;;16.81;33.21
59409;BME280;45213;32.654;-115.458;2023-02-03T02:13:29;102615.25;;;16.72;33.34
59409;BME280;45213;32.654;-115.458;2023-02-03T02:27:08;102609.44;;;16.32;34.49
59409;BME280;45213;32.654;-115.458;2023-02-03T02:34:56;102602.38;;;16.28;35.42
59409;BME280;45213;32.654;-115.458;2023-02-03T02:37:37;102612.81;;;16.22;35.66
59409;BME280;45213;32.654;-115.458;2023-02-03T02:40:24;102610.97;;;16.15;35.96
59409;BME280;45213;32.654;-115.458;2023-02-03T02:46:02;102625.53;;;15.94;37.28
59409;BME280;45213;32.654;-115.458;2023-02-03T02:48:37;102628.16;;;15.94;37.00
59409;BME280;45213;32.654;-115.458;2023-02-03T02:51:08;102629.75;;;15.86;37.51
59409;BME280;45213;32.654;-115.458;2023-02-03T02:53:45;102627.06;;;15.81;38.34
59409;BME280;45213;32.654;-115.458;2023-02-03T02:56:16;102626.91;;;15.72;38.16
59409;BME280;45213;32.654;-115.458;2023-02-03T02:58:47;102632.94;;;15.68;39.07
59409;BME280;45213;32.654;-115.458;2023-02-03T03:01:15;102631.09;;;15.62;39.15
59409;BME280;45213;32.654;-115.458;2023-02-03T03:03:43;102638.78;;;15.53;38.22
59409;BME280;45213;32.654;-115.458;2023-02-03T03:06:17;102637.78;;;15.45;39.36
59409;BME280;45213;32.654;-115.458;2023-02-03T03:09:00;102636.88;;;15.43;39.97
59409;BME280;45213;32.654;-115.458;2023-02-03T03:11:50;102639.53;;;15.46;38.96
59409;BME280;45213;32.654;-115.458;2023-02-03T03:14:21;102635.06;;;15.40;39.14
59409;BME280;45213;32.654;-115.458;2023-02-03T03:17:04;102634.91;;;15.33;40.28
59409;BME280;45213;32.654;-115.458;2023-02-03T03:19:34;102644.44;;;15.28;40.70
59409;BME280;45213;32.654;-115.458;2023-02-03T03:22:06;102640.88;;;15.24;40.93
59409;BME280;45213;32.654;-115.458;2023-02-03T03:24:46;102649.38;;;15.12;40.26
59409;BME280;45213;32.654;-115.458;2023-02-03T03:27:28;102644.03;;;15.06;41.42
59409;BME280;45213;32.654;-115.458;2023-02-03T03:30:20;102644.88;;;15.05;42.85
59409;BME280;45213;32.654;-115.458;2023-02-03T03:32:48;102642.25;;;15.05;41.36
59409;BME280;45213;32.654;-115.458;2023-02-03T03:35:16;102635.06;;;14.96;41.76
59409;BME280;45213;32.654;-115.458;2023-02-03T03:37:44;102636.81;;;14.94;42.12
59409;BME280;45213;32.654;-115.458;2023-02-03T03:40:37;102627.19;;;14.95;42.15
59409;BME280;45213;32.654;-115.458;2023-02-03T03:45:42;102633.38;;;14.98;42.04
59409;BME280;45213;32.654;-115.458;2023-02-03T03:48:26;102643.94;;;15.03;43.27
59409;BME280;45213;32.654;-115.458;2023-02-03T03:51:24;102653.75;;;15.10;41.51
59409;BME280;45213;32.654;-115.458;2023-02-03T03:53:56;102652.84;;;15.10;41.17
59409;BME280;45213;32.654;-115.458;2023-02-03T03:56:33;102652.88;;;15.11;40.66
59409;BME280;45213;32.654;-115.458;2023-02-03T03:59:02;102644.03;;;15.08;41.76
59409;BME280;45213;32.654;-115.458;2023-02-03T04:01:31;102647.34;;;14.97;42.43
59409;BME280;45213;32.654;-115.458;2023-02-03T04:04:02;102647.94;;;14.84;41.88
59409;BME280;45213;32.654;-115.458;2023-02-03T04:06:31;102648.72;;;14.78;42.27
59409;BME280;45213;32.654;-115.458;2023-02-03T04:08:57;102645.28;;;14.82;44.87
59409;BME280;45213;32.654;-115.458;2023-02-03T04:11:24;102646.94;;;14.77;43.31
59409;BME280;45213;32.654;-115.458;2023-02-03T04:14:09;102641.53;;;14.71;43.60
59409;BME280;45213;32.654;-115.458;2023-02-03T04:16:35;102653.66;;;14.66;43.32
59409;BME280;45213;32.654;-115.458;2023-02-03T04:19:02;102653.88;;;14.75;44.30
59409;BME280;45213;32.654;-115.458;2023-02-03T04:21:28;102646.72;;;14.68;43.25
59409;BME280;45213;32.654;-115.458;2023-02-03T04:23:55;102650.22;;;14.67;43.89
59409;BME280;45213;32.654;-115.458;2023-02-03T04:26:22;102651.81;;;14.60;43.84
59409;BME280;45213;32.654;-115.458;2023-02-03T04:28:49;102658.66;;;14.55;44.32
59409;BME280;45213;32.654;-115.458;2023-02-03T04:31:19;102658.63;;;14.54;43.79
59409;BME280;45213;32.654;-115.458;2023-02-03T04:33:46;102657.72;;;14.53;44.98
59409;BME280;45213;32.654;-115.458;2023-02-03T04:36:12;102657.56;;;14.46;43.99
59409;BME280;45213;32.654;-115.458;2023-02-03T04:38:40;102663.63;;;14.43;45.10
59409;BME280;45213;32.654;-115.458;2023-02-03T04:41:06;102669.63;;;14.39;44.73
59409;BME280;45213;32.654;-115.458;2023-02-03T04:43:33;102661.66;;;14.34;46.35
59409;BME280;45213;32.654;-115.458;2023-02-03T04:46:00;102656.41;;;14.34;45.68
59409;BME280;45213;32.654;-115.458;2023-02-03T04:48:27;102663.16;;;14.23;45.32
59409;BME280;45213;32.654;-115.458;2023-02-03T04:50:53;102660.47;;;14.20;45.69
59409;BME280;45213;32.654;-115.458;2023-02-03T04:53:20;102660.25;;;14.12;45.72
59409;BME280;45213;32.654;-115.458;2023-02-03T04:55:47;102673.63;;;14.23;45.32
59409;BME280;45213;32.654;-115.458;2023-02-03T04:58:14;102665.88;;;14.28;43.66
59409;BME280;45213;32.654;-115.458;2023-02-03T05:00:40;102659.81;;;14.30;40.43
59409;BME280;45213;32.654;-115.458;2023-02-03T05:03:07;102666.69;;;14.25;39.72
59409;BME280;45213;32.654;-115.458;2023-02-03T05:05:34;102662.41;;;14.29;38.30
59409;BME280;45213;32.654;-115.458;2023-02-03T05:08:00;102666.69;;;14.25;38.25
59409;BME280;45213;32.654;-115.458;2023-02-03T05:10:27;102670.00;;;14.18;39.43
59409;BME280;45213;32.654;-115.458;2023-02-03T05:12:54;102670.72;;;14.11;38.62
59409;BME280;45213;32.654;-115.458;2023-02-03T05:15:20;102662.69;;;14.05;38.91
59409;BME280;45213;32.654;-115.458;2023-02-03T05:17:47;102662.84;;;14.11;39.02
59409;BME280;45213;32.654;-115.458;2023-02-03T05:20:13;102666.28;;;14.08;39.23
59409;BME280;45213;32.654;-115.458;2023-02-03T05:22:40;102652.00;;;13.95;39.33
59409;BME280;45213;32.654;-115.458;2023-02-03T05:25:07;102662.59;;;14.00;40.86
59409;BME280;45213;32.654;-115.458;2023-02-03T05:27:35;102648.22;;;13.84;40.78
59409;BME280;45213;32.654;-115.458;2023-02-03T05:30:03;102656.88;;;13.82;40.73
59409;BME280;45213;32.654;-115.458;2023-02-03T05:32:29;102656.84;;;13.80;41.23
59409;BME280;45213;32.654;-115.458;2023-02-03T05:34:56;102656.78;;;13.77;41.58
59409;BME280;45213;32.654;-115.458;2023-02-03T05:37:23;102662.81;;;13.74;41.96
59409;BME280;45213;32.654;-115.458;2023-02-03T05:39:49;102663.63;;;13.72;42.24
59409;BME280;45213;32.654;-115.458;2023-02-03T05:42:16;102663.47;;;13.66;42.53
59409;BME280;45213;32.654;-115.458;2023-02-03T05:44:42;102663.34;;;13.61;42.67
59409;BME280;45213;32.654;-115.458;2023-02-03T05:47:09;102660.34;;;13.47;42.97
59409;BME280;45213;32.654;-115.458;2023-02-03T05:49:36;102649.03;;;13.48;42.34
59409;BME280;45213;32.654;-115.458;2023-02-03T05:52:02;102656.00;;;13.48;43.03
59409;BME280;45213;32.654;-115.458;2023-02-03T05:54:29;102663.78;;;13.45;43.96
59409;BME280;45213;32.654;-115.458;2023-02-03T05:56:56;102660.91;;;13.35;43.45
59409;BME280;45213;32.654;-115.458;2023-02-03T05:59:23;102660.88;;;13.34;43.46
59409;BME280;45213;32.654;-115.458;2023-02-03T06:01:49;102658.91;;;13.27;42.90
59409;BME280;45213;32.654;-115.458;2023-02-03T06:04:16;102659.84;;;13.29;43.31
59409;BME280;45213;32.654;-115.458;2023-02-03T06:06:43;102653.66;;;13.27;44.04
59409;BME280;45213;32.654;-115.458;2023-02-03T06:09:09;102662.47;;;13.29;43.01
59409;BME280;45213;32.654;-115.458;2023-02-03T06:11:36;102652.66;;;13.22;43.57
59409;BME280;45213;32.654;-115.458;2023-02-03T06:14:03;102660.41;;;13.19;44.69
59409;BME280;45213;32.654;-115.458;2023-02-03T06:16:30;102663.75;;;13.14;44.70
59409;BME280;45213;32.654;-115.458;2023-02-03T06:18:56;102656.69;;;13.10;44.46
59409;BME280;45213;32.654;-115.458;2023-02-03T06:21:24;102650.28;;;13.01;44.32
59409;BME280;45213;32.654;-115.458;2023-02-03T06:23:51;102651.03;;;12.95;45.09
59409;BME280;45213;32.654;-115.458;2023-02-03T06:26:18;102653.31;;;12.84;44.53
59409;BME280;45213;32.654;-115.458;2023-02-03T06:28:44;102652.31;;;12.81;43.92
59409;BME280;45213;32.654;-115.458;2023-02-03T06:31:11;102650.56;;;12.80;44.69
59409;BME280;45213;32.654;-115.458;2023-02-03T06:33:37;102646.19;;;12.79;45.68
59409;BME280;45213;32.654;-115.458;2023-02-03T06:36:04;102649.69;;;12.79;46.21
59409;BME280;45213;32.654;-115.458;2023-02-03T06:38:31;102639.13;;;12.76;45.33
59409;BME280;45213;32.654;-115.458;2023-02-03T06:40:57;102639.91;;;12.73;45.15
59409;BME280;45213;32.654;-115.458;2023-02-03T06:43:24;102645.72;;;12.63;45.98
59409;BME280;45213;32.654;-115.458;2023-02-03T06:45:51;102642.13;;;12.60;45.90
59409;BME280;45213;32.654;-115.458;2023-02-03T06:48:17;102642.91;;;12.57;45.60
59409;BME280;45213;32.654;-115.458;2023-02-03T06:50:44;102644.66;;;12.57;46.78
59409;BME280;45213;32.654;-115.458;2023-02-03T06:53:11;102644.72;;;12.58;46.18
59409;BME280;45213;32.654;-115.458;2023-02-03T06:55:38;102648.19;;;12.59;46.74
59409;BME280;45213;32.654;-115.458;2023-02-03T06:58:05;102645.44;;;12.54;46.76
59409;BME280;45213;32.654;-115.458;2023-02-03T07:00:31;102640.97;;;12.50;47.58
59409;BME280;45213;32.654;-115.458;2023-02-03T07:02:58;102634.75;;;12.46;47.79
59409;BME280;45213;32.654;-115.458;2023-02-03T07:05:25;102635.44;;;12.41;47.99
59409;BME280;45213;32.654;-115.458;2023-02-03T07:07:53;102626.59;;;12.36;48.85
59409;BME280;45213;32.654;-115.458;2023-02-03T07:10:20;102632.63;;;12.35;48.69
59409;BME280;45213;32.654;-115.458;2023-02-03T07:12:46;102629.00;;;12.29;47.72
59409;BME280;45213;32.654;-115.458;2023-02-03T07:15:13;102623.69;;;12.26;47.73
59409;BME280;45213;32.654;-115.458;2023-02-03T07:17:40;102624.50;;;12.25;49.11
59409;BME280;45213;32.654;-115.458;2023-02-03T07:20:07;102619.22;;;12.24;48.67
59409;BME280;45213;32.654;-115.458;2023-02-03T07:22:34;102623.56;;;12.23;48.97
59409;BME280;45213;32.654;-115.458;2023-02-03T07:25:01;102612.19;;;12.21;48.64
59409;BME280;45213;32.654;-115.458;2023-02-03T07:27:28;102602.47;;;12.16;49.53
59409;BME280;45213;32.654;-115.458;2023-02-03T07:29:54;102601.44;;;12.10;48.80
59409;BME280;45213;32.654;-115.458;2023-02-03T07:32:21;102597.91;;;12.10;48.87
59409;BME280;45213;32.654;-115.458;2023-02-03T07:34:48;102596.97;;;12.08;49.85
59409;BME280;45213;32.654;-115.458;2023-02-03T07:37:14;102584.47;;;11.98;49.43
59409;BME280;45213;32.654;-115.458;2023-02-03T07:39:41;102588.13;;;12.03;50.03
59409;BME280;45213;32.654;-115.458;2023-02-03T07:42:08;102583.75;;;12.02;49.23
59409;BME280;45213;32.654;-115.458;2023-02-03T07:44:37;102585.22;;;11.94;49.28
59409;BME280;45213;32.654;-115.458;2023-02-03T07:47:04;102597.31;;;11.91;50.58
59409;BME280;45213;32.654;-115.458;2023-02-03T07:49:31;102592.78;;;11.86;49.72
59409;BME280;45213;32.654;-115.458;2023-02-03T07:51:57;102588.22;;;11.80;50.21
59409;BME280;45213;32.654;-115.458;2023-02-03T07:54:24;102576.81;;;11.77;49.88
59409;BME280;45213;32.654;-115.458;2023-02-03T07:56:50;102574.88;;;11.71;50.73
59409;BME280;45213;32.654;-115.458;2023-02-03T07:59:17;102571.22;;;11.66;51.08
59409;BME280;45213;32.654;-115.458;2023-02-03T08:01:44;102567.59;;;11.61;51.28
59409;BME280;45213;32.654;-115.458;2023-02-03T08:04:10;102557.66;;;11.50;51.22
59409;BME280;45213;32.654;-115.458;2023-02-03T08:06:44;102560.56;;;11.58;52.28
59409;BME280;45213;32.654;-115.458;2023-02-03T08:09:11;102563.09;;;11.57;51.71
59409;BME280;45213;32.654;-115.458;2023-02-03T08:11:37;102553.47;;;11.56;50.90
59409;BME280;45213;32.654;-115.458;2023-02-03T08:14:04;102556.84;;;11.52;50.28
59409;BME280;45213;32.654;-115.458;2023-02-03T08:16:31;102546.28;;;11.48;51.16
59409;BME280;45213;32.654;-115.458;2023-02-03T08:18:57;102546.25;;;11.47;51.87
59409;BME280;45213;32.654;-115.458;2023-02-03T08:21:24;102548.72;;;11.42;51.72
59409;BME280;45213;32.654;-115.458;2023-02-03T08:23:50;102549.31;;;11.35;51.73
59409;BME280;45213;32.654;-115.458;2023-02-03T08:26:17;102542.25;;;11.31;51.99
59409;BME280;45213;32.654;-115.458;2023-02-03T08:28:47;102541.72;;;11.41;52.06
59409;BME280;45213;32.654;-115.458;2023-02-03T08:31:15;102537.22;;;11.37;51.97
59409;BME280;45213;32.654;-115.458;2023-02-03T08:33:41;102532.78;;;11.35;52.47
59409;BME280;45213;32.654;-115.458;2023-02-03T08:36:09;102526.69;;;11.34;52.22
59409;BME280;45213;32.654;-115.458;2023-02-03T08:38:37;102533.50;;;11.29;53.85
59409;BME280;45213;32.654;-115.458;2023-02-03T08:41:12;102530.97;;;11.32;54.02
59409;BME280;45213;32.654;-115.458;2023-02-03T08:43:39;102530.88;;;11.29;53.58
59409;BME280;45213;32.654;-115.458;2023-02-03T08:46:07;102534.22;;;11.25;53.79
59409;BME280;45213;32.654;-115.458;2023-02-03T08:48:34;102533.41;;;11.27;53.59
59409;BME280;45213;32.654;-115.458;2023-02-03T08:51:01;102531.59;;;11.25;53.21
59409;BME280;45213;32.654;-115.458;2023-02-03T08:53:28;102530.09;;;11.32;52.89
59409;BME280;45213;32.654;-115.458;2023-02-03T08:55:55;102527.72;;;11.39;51.00
59409;BME280;45213;32.654;-115.458;2023-02-03T08:58:21;102515.41;;;11.35;50.48
59409;BME280;45213;32.654;-115.458;2023-02-03T09:00:48;102521.63;;;11.39;51.15
59409;BME280;45213;32.654;-115.458;2023-02-03T09:03:14;102520.75;;;11.38;51.58
59409;BME280;45213;32.654;-115.458;2023-02-03T09:05:41;102526.75;;;11.36;52.04
59409;BME280;45213;32.654;-115.458;2023-02-03T09:08:08;102529.53;;;11.40;51.38
59409;BME280;45213;32.654;-115.458;2023-02-03T09:10:35;102527.72;;;11.39;51.96
59409;BME280;45213;32.654;-115.458;2023-02-03T09:13:02;102525.75;;;11.32;52.65
59409;BME280;45213;32.654;-115.458;2023-02-03T09:15:28;102527.41;;;11.30;53.08
59409;BME280;45213;32.654;-115.458;2023-02-03T09:17:55;102525.66;;;11.29;53.35
59409;BME280;45213;32.654;-115.458;2023-02-03T09:20:22;102512.66;;;11.31;54.73
59409;BME280;45213;32.654;-115.458;2023-02-03T09:22:51;102512.72;;;11.32;53.82
59409;BME280;45213;32.654;-115.458;2023-02-03T09:25:19;102506.78;;;11.36;52.77
59409;BME280;45213;32.654;-115.458;2023-02-03T09:27:46;102505.84;;;11.34;52.89
59409;BME280;45213;32.654;-115.458;2023-02-03T09:30:13;102504.78;;;11.29;52.82
59409;BME280;45213;32.654;-115.458;2023-02-03T09:32:40;102503.88;;;11.28;53.40
59409;BME280;45213;32.654;-115.458;2023-02-03T09:35:06;102505.63;;;11.28;53.89
59409;BME280;45213;32.654;-115.458;2023-02-03T09:37:33;102502.19;;;11.29;53.53
59409;BME280;45213;32.654;-115.458;2023-02-03T09:40:00;102512.00;;;11.36;53.51
59409;BME280;45213;32.654;-115.458;2023-02-03T09:45:28;102505.97;;;11.39;53.46
59409;BME280;45213;32.654;-115.458;2023-02-03T09:48:04;102493.66;;;11.35;53.49
59409;BME280;45213;32.654;-115.458;2023-02-03T09:50:33;102493.72;;;11.36;53.24
59409;BME280;45213;32.654;-115.458;2023-02-03T09:53:06;102499.03;;;11.39;52.19
59409;BME280;45213;32.654;-115.458;2023-02-03T09:55:44;102494.75;;;11.41;50.78
59409;BME280;45213;32.654;-115.458;2023-02-03T09:58:14;102500.19;;;11.47;51.67
59409;BME280;45213;32.654;-115.458;2023-02-03T10:00:45;102492.38;;;11.49;52.24
59409;BME280;45213;32.654;-115.458;2023-02-03T10:19:53;102491.91;;;11.61;45.99
59409;BME280;45213;32.654;-115.458;2023-02-03T10:22:26;102491.00;;;11.60;46.35
59409;BME280;45213;32.654;-115.458;2023-02-03T10:25:02;102479.91;;;11.66;46.74
59409;BME280;45213;32.654;-115.458;2023-02-03T10:27:32;102478.09;;;11.65;46.95
59409;BME280;45213;32.654;-115.458;2023-02-03T10:30:22;102475.50;;;11.65;46.28
59409;BME280;45213;32.654;-115.458;2023-02-03T10:32:54;102485.78;;;11.60;46.65
59409;BME280;45213;32.654;-115.458;2023-02-03T10:35:36;102486.56;;;11.56;47.21
59409;BME280;45213;32.654;-115.458;2023-02-03T10:38:12;102486.41;;;11.52;47.27
59409;BME280;45213;32.654;-115.458;2023-02-03T10:40:40;102479.41;;;11.50;46.41
59409;BME280;45213;32.654;-115.458;2023-02-03T10:43:08;102477.81;;;11.56;46.44
59409;BME280;45213;32.654;-115.458;2023-02-03T10:45:54;102469.47;;;11.66;45.97
59409;BME280;45213;32.654;-115.458;2023-02-03T10:48:23;102470.53;;;11.73;46.78
59409;BME280;45213;32.654;-115.458;2023-02-03T10:50:51;102470.47;;;11.71;46.22
59409;BME280;45213;32.654;-115.458;2023-02-03T10:53:31;102478.22;;;11.68;45.97
59409;BME280;45213;32.654;-115.458;2023-02-03T10:56:13;102477.38;;;11.69;46.18
59409;BME280;45213;32.654;-115.458;2023-02-03T10:58:47;102475.81;;;11.74;46.05
59409;BME280;45213;32.654;-115.458;2023-02-03T11:01:18;102466.28;;;11.76;46.19
59409;BME280;45213;32.654;-115.458;2023-02-03T11:04:02;102469.81;;;11.78;45.51
59409;BME280;45213;32.654;-115.458;2023-02-03T11:06:33;102457.72;;;11.80;45.74
59409;BME280;45213;32.654;-115.458;2023-02-03T11:09:01;102450.19;;;11.89;47.15
59409;BME280;45213;32.654;-115.458;2023-02-03T11:11:43;102452.50;;;11.80;47.34
59409;BME280;45213;32.654;-115.458;2023-02-03T11:14:15;102451.41;;;11.72;48.02
59409;BME280;45213;32.654;-115.458;2023-02-03T11:16:42;102446.84;;;11.66;48.26
59409;BME280;45213;32.654;-115.458;2023-02-03T11:19:20;102445.13;;;11.67;48.10
59409;BME280;45213;32.654;-115.458;2023-02-03T11:21:52;102434.88;;;11.73;47.83
59409;BME280;45213;32.654;-115.458;2023-02-03T11:24:27;102424.38;;;11.70;48.78
59409;BME280;45213;32.654;-115.458;2023-02-03T11:27:00;102424.09;;;11.61;48.93
59409;BME280;45213;32.654;-115.458;2023-02-03T11:29:31;102422.16;;;11.55;48.51
59409;BME280;45213;32.654;-115.458;2023-02-03T11:32:02;102434.38;;;11.56;49.54
59409;BME280;45213;32.654;-115.458;2023-02-03T11:34:36;102435.91;;;11.49;49.27
59409;BME280;45213;32.654;-115.458;2023-02-03T11:37:34;102425.22;;;11.42;48.83
59409;BME280;45213;32.654;-115.458;2023-02-03T11:43:03;102414.84;;;11.43;50.78
59409;BME280;45213;32.654;-115.458;2023-02-03T11:45:42;102407.88;;;11.42;50.85
59409;BME280;45213;32.654;-115.458;2023-02-03T11:48:15;102404.47;;;11.45;50.44
59409;BME280;45213;32.654;-115.458;2023-02-03T11:50:51;102407.09;;;11.46;50.14
59409;BME280;45213;32.654;-115.458;2023-02-03T11:53:40;102383.97;;;11.30;50.37
59409;BME280;45213;32.654;-115.458;2023-02-03T11:56:28;102404.41;;;11.43;51.02
59409;BME280;45213;32.654;-115.458;2023-02-03T12:05:03;102399.53;;;11.27;50.34
59409;BME280;45213;32.654;-115.458;2023-02-03T12:13:35;102388.69;;;11.15;52.62
59409;BME280;45213;32.654;-115.458;2023-02-03T12:16:09;102386.84;;;11.11;52.59
59409;BME280;45213;32.654;-115.458;2023-02-03T12:27:21;102411.88;;;11.05;51.06
59409;BME280;45213;32.654;-115.458;2023-02-03T12:29:36;102416.06;;;11.00;50.75
59409;BME280;45213;32.654;-115.458;2023-02-03T12:32:08;102417.00;;;11.02;51.21
59409;BME280;45213;32.654;-115.458;2023-02-03T12:37:22;102422.41;;;11.08;50.12
59409;BME280;45213;32.654;-115.458;2023-02-03T12:40:02;102410.19;;;11.07;49.04
59409;BME280;45213;32.654;-115.458;2023-02-03T12:42:57;102424.25;;;11.13;48.50
59409;BME280;45213;32.654;-115.458;2023-02-03T12:45:26;102425.34;;;11.19;47.80
59409;BME280;45213;32.654;-115.458;2023-02-03T12:48:01;102431.56;;;11.23;48.09
59409;BME280;45213;32.654;-115.458;2023-02-03T12:50:39;102418.22;;;11.14;46.72
59409;BME280;45213;32.654;-115.458;2023-02-03T12:55:57;102405.34;;;11.18;46.18
59409;BME280;45213;32.654;-115.458;2023-02-03T12:58:31;102416.00;;;11.26;47.03
59409;BME280;45213;32.654;-115.458;2023-02-03T13:01:14;102427.00;;;11.16;46.69
59409;BME280;45213;32.654;-115.458;2023-02-03T13:03:44;102425.31;;;11.18;45.67
59409;BME280;45213;32.654;-115.458;2023-02-03T13:11:34;102419.16;;;11.16;47.93
59409;BME280;45213;32.654;-115.458;2023-02-03T13:16:57;102399.63;;;11.03;49.62
59409;BME280;45213;32.654;-115.458;2023-02-03T13:19:29;102381.94;;;10.94;49.70
59409;BME280;45213;32.654;-115.458;2023-02-03T13:22:04;102395.84;;;10.93;50.68
59409;BME280;45213;32.654;-115.458;2023-02-03T13:24:36;102399.94;;;10.86;50.61
59409;BME280;45213;32.654;-115.458;2023-02-03T13:27:25;102395.47;;;10.82;50.95
59409;BME280;45213;32.654;-115.458;2023-02-03T13:30:17;102386.84;;;10.83;52.35
59409;BME280;45213;32.654;-115.458;2023-02-03T13:35:42;102400.28;;;10.70;52.66
59409;BME280;45213;32.654;-115.458;2023-02-03T13:43:30;102415.75;;;10.65;51.16
59409;BME280;45213;32.654;-115.458;2023-02-03T13:45:58;102420.72;;;10.59;52.63
59409;BME280;45213;32.654;-115.458;2023-02-03T13:48:28;102410.31;;;10.59;53.42
59409;BME280;45213;32.654;-115.458;2023-02-03T13:51:17;102415.31;;;10.53;54.00
59409;BME280;45213;32.654;-115.458;2023-02-03T13:53:46;102431.47;;;10.44;53.41
59409;BME280;45213;32.654;-115.458;2023-02-03T13:56:20;102433.53;;;10.53;52.17
59409;BME280;45213;32.654;-115.458;2023-02-03T14:01:40;102438.56;;;10.47;52.50
59409;BME280;45213;32.654;-115.458;2023-02-03T14:04:54;102446.91;;;10.38;53.88
59409;BME280;45213;32.654;-115.458;2023-02-03T14:06:59;102452.34;;;10.22;53.96